sensor_id;sensor_type;location;lat;lon;timestamp;P1;durP1;ratioP1;P2;durP2;ratioP2
69527;SDS011;57136;51.986;4.468;2022-08-01T00:00:58;9.02;;;5.38;;
69527;SDS011;57136;51.986;4.468;2022-08-01T00:03:23;8.68;;;5.25;;
69527;SDS011;57136;51.986;4.468;2022-08-01T00:05:49;9.10;;;5.05;;
69527;SDS011;57136;51.986;4.468;2022-08-01T00:08:14;8.95;;;5.28;;
69527;SDS011;57136;51.986;4.468;2022-08-01T00:10:39;9.10;;;4.63;;
69527;SDS011;57136;51.986;4.468;2022-08-01T00:13:05;8.10;;;4.95;;
69527;SDS011;57136;51.986;4.468;2022-08-01T00:15:30;6.40;;;4.53;;
69527;SDS011;57136;51.986;4.468;2022-08-01T00:17:57;8.27;;;4.50;;
69527;SDS011;57136;51.986;4.468;2022-08-01T00:20:22;6.53;;;4.32;;
69527;SDS011;57136;51.986;4.468;2022-08-01T00:22:48;8.77;;;4.43;;
69527;SDS011;57136;51.986;4.468;2022-08-01T00:25:13;8.38;;;4.65;;
69527;SDS011;57136;51.986;4.468;2022-08-01T00:27:38;9.48;;;4.80;;
69527;SDS011;57136;51.986;4.468;2022-08-01T00:30:04;6.60;;;4.68;;
69527;SDS011;57136;51.986;4.468;2022-08-01T00:32:30;11.25;;;5.32;;
69527;SDS011;57136;51.986;4.468;2022-08-01T00:34:56;9.95;;;5.03;;
69527;SDS011;57136;51.986;4.468;2022-08-01T00:37:22;11.45;;;5.57;;
69527;SDS011;57136;51.986;4.468;2022-08-01T00:39:47;12.00;;;5.32;;
69527;SDS011;57136;51.986;4.468;2022-08-01T00:42:12;10.02;;;5.03;;
69527;SDS011;57136;51.986;4.468;2022-08-01T00:44:38;12.77;;;5.55;;
69527;SDS011;57136;51.986;4.468;2022-08-01T00:47:04;9.93;;;5.50;;
69527;SDS011;57136;51.986;4.468;2022-08-01T00:49:30;11.48;;;5.55;;
69527;SDS011;57136;51.986;4.468;2022-08-01T00:51:56;9.98;;;5.07;;
69527;SDS011;57136;51.986;4.468;2022-08-01T00:54:23;8.77;;;5.05;;
69527;SDS011;57136;51.986;4.468;2022-08-01T00:56:50;10.35;;;5.10;;
69527;SDS011;57136;51.986;4.468;2022-08-01T00:59:16;7.80;;;4.60;;
69527;SDS011;57136;51.986;4.468;2022-08-01T01:01:43;6.97;;;4.00;;
69527;SDS011;57136;51.986;4.468;2022-08-01T01:04:08;7.32;;;4.07;;
69527;SDS011;57136;51.986;4.468;2022-08-01T01:09:30;5.72;;;2.42;;
69527;SDS011;57136;51.986;4.468;2022-08-01T01:17:28;3.72;;;1.83;;
69527;SDS011;57136;51.986;4.468;2022-08-01T01:20:00;4.13;;;1.50;;
69527;SDS011;57136;51.986;4.468;2022-08-01T01:22:36;2.80;;;1.80;;
69527;SDS011;57136;51.986;4.468;2022-08-01T01:30:46;3.22;;;2.40;;
69527;SDS011;57136;51.986;4.468;2022-08-01T01:33:16;3.55;;;2.15;;
69527;SDS011;57136;51.986;4.468;2022-08-01T01:35:46;3.50;;;2.40;;
69527;SDS011;57136;51.986;4.468;2022-08-01T01:40:46;3.30;;;2.42;;
69527;SDS011;57136;51.986;4.468;2022-08-01T01:43:13;5.18;;;2.35;;
69527;SDS011;57136;51.986;4.468;2022-08-01T01:45:44;2.83;;;2.03;;
69527;SDS011;57136;51.986;4.468;2022-08-01T01:48:16;5.13;;;2.55;;
69527;SDS011;57136;51.986;4.468;2022-08-01T01:50:44;2.78;;;2.33;;
69527;SDS011;57136;51.986;4.468;2022-08-01T01:53:12;3.92;;;2.30;;
69527;SDS011;57136;51.986;4.468;2022-08-01T01:55:40;4.20;;;2.63;;
69527;SDS011;57136;51.986;4.468;2022-08-01T01:58:08;4.72;;;2.70;;
69527;SDS011;57136;51.986;4.468;2022-08-01T02:00:38;2.97;;;2.13;;
69527;SDS011;57136;51.986;4.468;2022-08-01T02:03:06;3.88;;;2.60;;
69527;SDS011;57136;51.986;4.468;2022-08-01T02:05:33;4.18;;;2.78;;
69527;SDS011;57136;51.986;4.468;2022-08-01T02:08:01;3.70;;;2.70;;
69527;SDS011;57136;51.986;4.468;2022-08-01T02:10:29;4.45;;;3.03;;
69527;SDS011;57136;51.986;4.468;2022-08-01T02:12:56;5.63;;;3.20;;
69527;SDS011;57136;51.986;4.468;2022-08-01T02:15:22;3.60;;;2.80;;
69527;SDS011;57136;51.986;4.468;2022-08-01T02:17:49;3.17;;;2.72;;
69527;SDS011;57136;51.986;4.468;2022-08-01T02:20:15;7.38;;;3.42;;
69527;SDS011;57136;51.986;4.468;2022-08-01T02:22:44;4.15;;;3.25;;
69527;SDS011;57136;51.986;4.468;2022-08-01T02:25:20;5.15;;;3.05;;
69527;SDS011;57136;51.986;4.468;2022-08-01T02:28:06;5.03;;;3.47;;
69527;SDS011;57136;51.986;4.468;2022-08-01T02:30:34;7.90;;;4.63;;
69527;SDS011;57136;51.986;4.468;2022-08-01T02:33:03;6.28;;;3.88;;
69527;SDS011;57136;51.986;4.468;2022-08-01T02:35:32;6.85;;;3.40;;
69527;SDS011;57136;51.986;4.468;2022-08-01T02:38:01;6.55;;;4.07;;
69527;SDS011;57136;51.986;4.468;2022-08-01T02:40:29;6.80;;;3.88;;
69527;SDS011;57136;51.986;4.468;2022-08-01T02:42:57;5.97;;;4.53;;
69527;SDS011;57136;51.986;4.468;2022-08-01T02:45:25;9.10;;;4.57;;
69527;SDS011;57136;51.986;4.468;2022-08-01T02:47:53;8.00;;;4.50;;
69527;SDS011;57136;51.986;4.468;2022-08-01T02:50:24;7.75;;;5.00;;
69527;SDS011;57136;51.986;4.468;2022-08-01T02:52:51;7.28;;;4.65;;
69527;SDS011;57136;51.986;4.468;2022-08-01T02:55:19;8.35;;;4.47;;
69527;SDS011;57136;51.986;4.468;2022-08-01T02:57:45;8.55;;;4.60;;
69527;SDS011;57136;51.986;4.468;2022-08-01T03:00:13;10.45;;;4.55;;
69527;SDS011;57136;51.986;4.468;2022-08-01T03:02:40;9.02;;;4.43;;
69527;SDS011;57136;51.986;4.468;2022-08-01T03:05:07;5.75;;;4.05;;
69527;SDS011;57136;51.986;4.468;2022-08-01T03:07:34;7.22;;;4.40;;
69527;SDS011;57136;51.986;4.468;2022-08-01T03:10:00;4.80;;;3.80;;
69527;SDS011;57136;51.986;4.468;2022-08-01T03:12:27;4.88;;;3.88;;
69527;SDS011;57136;51.986;4.468;2022-08-01T03:14:56;4.95;;;3.20;;
69527;SDS011;57136;51.986;4.468;2022-08-01T03:17:24;2.97;;;2.65;;
69527;SDS011;57136;51.986;4.468;2022-08-01T03:19:52;5.43;;;2.58;;
69527;SDS011;57136;51.986;4.468;2022-08-01T03:22:18;3.53;;;1.95;;
69527;SDS011;57136;51.986;4.468;2022-08-01T03:24:47;2.47;;;2.10;;
69527;SDS011;57136;51.986;4.468;2022-08-01T03:27:15;3.03;;;1.70;;
69527;SDS011;57136;51.986;4.468;2022-08-01T03:29:44;3.45;;;1.73;;
69527;SDS011;57136;51.986;4.468;2022-08-01T03:32:11;2.03;;;1.50;;
69527;SDS011;57136;51.986;4.468;2022-08-01T03:34:38;2.53;;;1.40;;
69527;SDS011;57136;51.986;4.468;2022-08-01T03:37:17;2.03;;;1.20;;
69527;SDS011;57136;51.986;4.468;2022-08-01T03:39:55;1.67;;;1.17;;
69527;SDS011;57136;51.986;4.468;2022-08-01T03:42:25;2.45;;;1.30;;
69527;SDS011;57136;51.986;4.468;2022-08-01T03:44:59;2.45;;;1.33;;
69527;SDS011;57136;51.986;4.468;2022-08-01T03:47:31;1.95;;;1.60;;
69527;SDS011;57136;51.986;4.468;2022-08-01T03:49:58;1.65;;;1.40;;
69527;SDS011;57136;51.986;4.468;2022-08-01T03:52:26;2.22;;;1.48;;
69527;SDS011;57136;51.986;4.468;2022-08-01T03:54:54;2.38;;;1.52;;
69527;SDS011;57136;51.986;4.468;2022-08-01T03:57:23;2.17;;;1.40;;
69527;SDS011;57136;51.986;4.468;2022-08-01T03:59:50;3.05;;;1.63;;
69527;SDS011;57136;51.986;4.468;2022-08-01T04:02:16;3.50;;;1.50;;
69527;SDS011;57136;51.986;4.468;2022-08-01T04:04:43;3.42;;;1.90;;
69527;SDS011;57136;51.986;4.468;2022-08-01T04:07:22;1.85;;;1.73;;
69527;SDS011;57136;51.986;4.468;2022-08-01T04:09:56;3.10;;;1.60;;
69527;SDS011;57136;51.986;4.468;2022-08-01T04:12:21;2.58;;;1.85;;
69527;SDS011;57136;51.986;4.468;2022-08-01T04:14:47;2.33;;;1.90;;
69527;SDS011;57136;51.986;4.468;2022-08-01T04:17:13;2.42;;;1.70;;
69527;SDS011;57136;51.986;4.468;2022-08-01T04:19:40;2.83;;;1.70;;
69527;SDS011;57136;51.986;4.468;2022-08-01T04:22:06;3.50;;;2.35;;
69527;SDS011;57136;51.986;4.468;2022-08-01T04:24:33;6.18;;;2.22;;
69527;SDS011;57136;51.986;4.468;2022-08-01T04:27:01;4.15;;;2.10;;
69527;SDS011;57136;51.986;4.468;2022-08-01T04:29:29;2.33;;;1.98;;
69527;SDS011;57136;51.986;4.468;2022-08-01T04:31:57;2.88;;;2.03;;
69527;SDS011;57136;51.986;4.468;2022-08-01T04:34:25;3.63;;;1.88;;
69527;SDS011;57136;51.986;4.468;2022-08-01T04:36:54;5.00;;;1.88;;
69527;SDS011;57136;51.986;4.468;2022-08-01T04:39:20;3.53;;;2.28;;
69527;SDS011;57136;51.986;4.468;2022-08-01T04:41:52;3.20;;;2.03;;
69527;SDS011;57136;51.986;4.468;2022-08-01T04:44:22;3.83;;;2.00;;
69527;SDS011;57136;51.986;4.468;2022-08-01T04:46:48;3.58;;;2.15;;
69527;SDS011;57136;51.986;4.468;2022-08-01T04:49:14;3.25;;;2.30;;
69527;SDS011;57136;51.986;4.468;2022-08-01T04:51:54;2.88;;;2.00;;
69527;SDS011;57136;51.986;4.468;2022-08-01T04:54:25;6.22;;;2.90;;
69527;SDS011;57136;51.986;4.468;2022-08-01T04:56:51;3.03;;;2.00;;
69527;SDS011;57136;51.986;4.468;2022-08-01T04:59:18;4.40;;;1.80;;
69527;SDS011;57136;51.986;4.468;2022-08-01T05:02:03;3.97;;;1.90;;
69527;SDS011;57136;51.986;4.468;2022-08-01T05:04:29;3.60;;;2.03;;
69527;SDS011;57136;51.986;4.468;2022-08-01T05:06:54;4.15;;;2.22;;
69527;SDS011;57136;51.986;4.468;2022-08-01T05:09:19;3.58;;;2.00;;
69527;SDS011;57136;51.986;4.468;2022-08-01T05:11:45;2.25;;;1.38;;
69527;SDS011;57136;51.986;4.468;2022-08-01T05:14:10;3.75;;;1.92;;
69527;SDS011;57136;51.986;4.468;2022-08-01T05:16:36;2.75;;;1.80;;
69527;SDS011;57136;51.986;4.468;2022-08-01T05:19:01;3.22;;;1.80;;
69527;SDS011;57136;51.986;4.468;2022-08-01T05:21:27;2.15;;;1.75;;
69527;SDS011;57136;51.986;4.468;2022-08-01T05:23:53;1.98;;;1.73;;
69527;SDS011;57136;51.986;4.468;2022-08-01T05:26:18;2.58;;;1.77;;
69527;SDS011;57136;51.986;4.468;2022-08-01T05:28:43;3.08;;;2.05;;
69527;SDS011;57136;51.986;4.468;2022-08-01T05:31:08;3.45;;;1.85;;
69527;SDS011;57136;51.986;4.468;2022-08-01T05:33:34;5.00;;;2.20;;
69527;SDS011;57136;51.986;4.468;2022-08-01T05:36:00;4.93;;;1.88;;
69527;SDS011;57136;51.986;4.468;2022-08-01T05:38:25;3.97;;;1.98;;
69527;SDS011;57136;51.986;4.468;2022-08-01T05:40:51;2.55;;;1.80;;
69527;SDS011;57136;51.986;4.468;2022-08-01T05:43:16;4.43;;;1.90;;
69527;SDS011;57136;51.986;4.468;2022-08-01T05:45:41;2.40;;;1.77;;
69527;SDS011;57136;51.986;4.468;2022-08-01T05:48:07;1.83;;;1.60;;
69527;SDS011;57136;51.986;4.468;2022-08-01T05:50:32;3.20;;;1.80;;
69527;SDS011;57136;51.986;4.468;2022-08-01T05:52:58;3.25;;;1.92;;
69527;SDS011;57136;51.986;4.468;2022-08-01T05:55:23;3.20;;;1.88;;
69527;SDS011;57136;51.986;4.468;2022-08-01T05:57:49;5.93;;;2.67;;
69527;SDS011;57136;51.986;4.468;2022-08-01T06:00:14;4.88;;;2.03;;
69527;SDS011;57136;51.986;4.468;2022-08-01T06:02:41;6.05;;;2.53;;
69527;SDS011;57136;51.986;4.468;2022-08-01T06:05:08;4.00;;;2.15;;
69527;SDS011;57136;51.986;4.468;2022-08-01T06:07:34;7.13;;;2.70;;
69527;SDS011;57136;51.986;4.468;2022-08-01T06:09:59;3.60;;;2.60;;
69527;SDS011;57136;51.986;4.468;2022-08-01T06:12:24;5.25;;;3.05;;
69527;SDS011;57136;51.986;4.468;2022-08-01T06:14:50;6.55;;;3.15;;
69527;SDS011;57136;51.986;4.468;2022-08-01T06:17:15;4.05;;;3.53;;
69527;SDS011;57136;51.986;4.468;2022-08-01T06:19:40;4.63;;;3.60;;
69527;SDS011;57136;51.986;4.468;2022-08-01T06:22:06;4.03;;;3.63;;
69527;SDS011;57136;51.986;4.468;2022-08-01T06:24:31;5.05;;;3.80;;
69527;SDS011;57136;51.986;4.468;2022-08-01T06:26:56;6.50;;;4.03;;
69527;SDS011;57136;51.986;4.468;2022-08-01T06:29:22;5.65;;;4.53;;
69527;SDS011;57136;51.986;4.468;2022-08-01T06:31:47;4.50;;;3.95;;
69527;SDS011;57136;51.986;4.468;2022-08-01T06:34:13;5.28;;;3.65;;
69527;SDS011;57136;51.986;4.468;2022-08-01T06:36:43;4.95;;;3.72;;
69527;SDS011;57136;51.986;4.468;2022-08-01T06:39:08;6.63;;;3.83;;
69527;SDS011;57136;51.986;4.468;2022-08-01T06:41:33;5.28;;;4.25;;
69527;SDS011;57136;51.986;4.468;2022-08-01T06:43:58;7.80;;;4.57;;
69527;SDS011;57136;51.986;4.468;2022-08-01T06:46:27;8.15;;;5.57;;
69527;SDS011;57136;51.986;4.468;2022-08-01T06:48:52;8.05;;;5.10;;
69527;SDS011;57136;51.986;4.468;2022-08-01T06:51:17;9.88;;;5.30;;
69527;SDS011;57136;51.986;4.468;2022-08-01T06:53:44;9.10;;;5.63;;
69527;SDS011;57136;51.986;4.468;2022-08-01T06:56:10;8.63;;;5.85;;
69527;SDS011;57136;51.986;4.468;2022-08-01T06:58:36;7.45;;;5.75;;
69527;SDS011;57136;51.986;4.468;2022-08-01T07:01:02;7.75;;;5.10;;
69527;SDS011;57136;51.986;4.468;2022-08-01T07:03:30;7.38;;;5.68;;
69527;SDS011;57136;51.986;4.468;2022-08-01T07:05:56;7.97;;;5.15;;
69527;SDS011;57136;51.986;4.468;2022-08-01T07:08:22;8.00;;;5.13;;
69527;SDS011;57136;51.986;4.468;2022-08-01T07:10:48;7.40;;;5.07;;
69527;SDS011;57136;51.986;4.468;2022-08-01T07:13:13;7.75;;;5.32;;
69527;SDS011;57136;51.986;4.468;2022-08-01T07:15:43;7.35;;;5.63;;
69527;SDS011;57136;51.986;4.468;2022-08-01T07:18:08;11.70;;;6.88;;
69527;SDS011;57136;51.986;4.468;2022-08-01T07:20:33;11.68;;;6.07;;
69527;SDS011;57136;51.986;4.468;2022-08-01T07:22:59;13.90;;;7.32;;
69527;SDS011;57136;51.986;4.468;2022-08-01T07:25:24;15.50;;;7.60;;
69527;SDS011;57136;51.986;4.468;2022-08-01T07:27:49;19.15;;;8.48;;
69527;SDS011;57136;51.986;4.468;2022-08-01T07:30:14;18.30;;;8.02;;
69527;SDS011;57136;51.986;4.468;2022-08-01T07:32:40;20.38;;;9.13;;
69527;SDS011;57136;51.986;4.468;2022-08-01T07:35:06;21.08;;;8.23;;
69527;SDS011;57136;51.986;4.468;2022-08-01T07:37:32;17.58;;;8.35;;
69527;SDS011;57136;51.986;4.468;2022-08-01T07:39:57;22.80;;;8.80;;
69527;SDS011;57136;51.986;4.468;2022-08-01T07:42:22;18.20;;;8.85;;
69527;SDS011;57136;51.986;4.468;2022-08-01T07:44:48;22.38;;;8.40;;
69527;SDS011;57136;51.986;4.468;2022-08-01T07:47:13;20.25;;;8.10;;
69527;SDS011;57136;51.986;4.468;2022-08-01T07:49:38;20.25;;;8.05;;
69527;SDS011;57136;51.986;4.468;2022-08-01T07:52:04;16.48;;;6.65;;
69527;SDS011;57136;51.986;4.468;2022-08-01T07:54:30;20.35;;;7.32;;
69527;SDS011;57136;51.986;4.468;2022-08-01T07:56:56;14.95;;;6.95;;
69527;SDS011;57136;51.986;4.468;2022-08-01T07:59:21;17.98;;;7.65;;
69527;SDS011;57136;51.986;4.468;2022-08-01T08:01:48;19.00;;;6.03;;
69527;SDS011;57136;51.986;4.468;2022-08-01T08:04:17;18.33;;;6.43;;
69527;SDS011;57136;51.986;4.468;2022-08-01T08:06:43;12.65;;;5.72;;
69527;SDS011;57136;51.986;4.468;2022-08-01T08:09:09;18.58;;;5.97;;
69527;SDS011;57136;51.986;4.468;2022-08-01T08:11:35;16.17;;;5.43;;
69527;SDS011;57136;51.986;4.468;2022-08-01T08:14:00;14.32;;;4.75;;
69527;SDS011;57136;51.986;4.468;2022-08-01T08:16:26;12.32;;;4.47;;
69527;SDS011;57136;51.986;4.468;2022-08-01T08:18:51;11.52;;;4.35;;
69527;SDS011;57136;51.986;4.468;2022-08-01T08:21:16;12.23;;;4.90;;
69527;SDS011;57136;51.986;4.468;2022-08-01T08:23:42;10.18;;;4.40;;
69527;SDS011;57136;51.986;4.468;2022-08-01T08:26:26;12.82;;;4.43;;
69527;SDS011;57136;51.986;4.468;2022-08-01T08:28:51;14.95;;;4.72;;
69527;SDS011;57136;51.986;4.468;2022-08-01T08:31:17;16.95;;;4.72;;
69527;SDS011;57136;51.986;4.468;2022-08-01T08:33:42;7.57;;;3.35;;
69527;SDS011;57136;51.986;4.468;2022-08-01T08:36:07;11.63;;;4.05;;
69527;SDS011;57136;51.986;4.468;2022-08-01T08:38:33;9.55;;;3.83;;
69527;SDS011;57136;51.986;4.468;2022-08-01T08:40:59;10.77;;;4.07;;
69527;SDS011;57136;51.986;4.468;2022-08-01T08:43:24;13.80;;;4.03;;
69527;SDS011;57136;51.986;4.468;2022-08-01T08:45:51;11.18;;;4.25;;
69527;SDS011;57136;51.986;4.468;2022-08-01T08:48:17;14.63;;;4.57;;
69527;SDS011;57136;51.986;4.468;2022-08-01T08:50:43;10.63;;;3.75;;
69527;SDS011;57136;51.986;4.468;2022-08-01T08:53:10;10.23;;;3.25;;
69527;SDS011;57136;51.986;4.468;2022-08-01T08:55:38;11.25;;;3.78;;
69527;SDS011;57136;51.986;4.468;2022-08-01T08:58:10;6.72;;;3.15;;
69527;SDS011;57136;51.986;4.468;2022-08-01T09:00:41;11.00;;;2.67;;
69527;SDS011;57136;51.986;4.468;2022-08-01T09:03:06;8.77;;;3.33;;
69527;SDS011;57136;51.986;4.468;2022-08-01T09:05:32;9.02;;;2.67;;
69527;SDS011;57136;51.986;4.468;2022-08-01T09:07:58;12.88;;;3.63;;
69527;SDS011;57136;51.986;4.468;2022-08-01T09:10:23;9.48;;;3.40;;
69527;SDS011;57136;51.986;4.468;2022-08-01T09:13:01;6.97;;;3.20;;
69527;SDS011;57136;51.986;4.468;2022-08-01T09:18:06;6.07;;;3.08;;
69527;SDS011;57136;51.986;4.468;2022-08-01T09:20:32;9.00;;;3.90;;
69527;SDS011;57136;51.986;4.468;2022-08-01T09:22:59;9.45;;;3.33;;
69527;SDS011;57136;51.986;4.468;2022-08-01T09:25:25;6.20;;;3.03;;
69527;SDS011;57136;51.986;4.468;2022-08-01T09:28:04;8.32;;;3.40;;
69527;SDS011;57136;51.986;4.468;2022-08-01T09:30:36;7.72;;;3.10;;
69527;SDS011;57136;51.986;4.468;2022-08-01T09:33:04;10.10;;;4.03;;
69527;SDS011;57136;51.986;4.468;2022-08-01T09:35:31;9.35;;;4.50;;
69527;SDS011;57136;51.986;4.468;2022-08-01T09:38:19;10.82;;;3.83;;
69527;SDS011;57136;51.986;4.468;2022-08-01T09:40:53;10.18;;;3.88;;
69527;SDS011;57136;51.986;4.468;2022-08-01T09:43:22;14.73;;;3.70;;
69527;SDS011;57136;51.986;4.468;2022-08-01T09:45:51;5.00;;;3.30;;
69527;SDS011;57136;51.986;4.468;2022-08-01T09:48:17;8.52;;;3.60;;
69527;SDS011;57136;51.986;4.468;2022-08-01T09:50:45;7.95;;;2.88;;
69527;SDS011;57136;51.986;4.468;2022-08-01T09:53:12;7.20;;;2.58;;
69527;SDS011;57136;51.986;4.468;2022-08-01T09:55:38;7.13;;;2.80;;
69527;SDS011;57136;51.986;4.468;2022-08-01T09:58:05;5.25;;;2.13;;
69527;SDS011;57136;51.986;4.468;2022-08-01T10:00:31;6.97;;;2.20;;
69527;SDS011;57136;51.986;4.468;2022-08-01T10:02:58;7.63;;;2.70;;
69527;SDS011;57136;51.986;4.468;2022-08-01T10:05:30;4.72;;;2.20;;
69527;SDS011;57136;51.986;4.468;2022-08-01T10:07:58;4.78;;;2.00;;
69527;SDS011;57136;51.986;4.468;2022-08-01T10:10:25;5.03;;;2.05;;
69527;SDS011;57136;51.986;4.468;2022-08-01T10:12:52;6.97;;;1.92;;
69527;SDS011;57136;51.986;4.468;2022-08-01T10:15:18;6.13;;;2.58;;
69527;SDS011;57136;51.986;4.468;2022-08-01T10:17:55;9.85;;;2.83;;
69527;SDS011;57136;51.986;4.468;2022-08-01T10:20:23;8.23;;;2.50;;
69527;SDS011;57136;51.986;4.468;2022-08-01T10:22:51;5.97;;;2.17;;
69527;SDS011;57136;51.986;4.468;2022-08-01T10:25:23;7.82;;;2.30;;
69527;SDS011;57136;51.986;4.468;2022-08-01T10:27:52;9.23;;;2.40;;
69527;SDS011;57136;51.986;4.468;2022-08-01T10:30:21;9.15;;;2.20;;
69527;SDS011;57136;51.986;4.468;2022-08-01T10:32:47;10.05;;;2.72;;
69527;SDS011;57136;51.986;4.468;2022-08-01T10:35:14;6.47;;;2.28;;
69527;SDS011;57136;51.986;4.468;2022-08-01T10:37:43;5.03;;;2.30;;
69527;SDS011;57136;51.986;4.468;2022-08-01T10:40:11;3.58;;;1.65;;
69527;SDS011;57136;51.986;4.468;2022-08-01T10:42:39;4.85;;;1.63;;
69527;SDS011;57136;51.986;4.468;2022-08-01T10:45:06;6.88;;;1.85;;
69527;SDS011;57136;51.986;4.468;2022-08-01T10:47:51;7.85;;;2.00;;
69527;SDS011;57136;51.986;4.468;2022-08-01T10:50:31;4.72;;;1.80;;
69527;SDS011;57136;51.986;4.468;2022-08-01T10:53:13;3.95;;;1.98;;
69527;SDS011;57136;51.986;4.468;2022-08-01T10:58:25;5.45;;;2.08;;
69527;SDS011;57136;51.986;4.468;2022-08-01T11:03:55;6.05;;;1.80;;
69527;SDS011;57136;51.986;4.468;2022-08-01T11:09:41;8.00;;;2.70;;
69527;SDS011;57136;51.986;4.468;2022-08-01T11:14:34;3.72;;;1.80;;
69527;SDS011;57136;51.986;4.468;2022-08-01T11:17:41;9.70;;;2.42;;
69527;SDS011;57136;51.986;4.468;2022-08-01T11:20:16;4.38;;;1.95;;
69527;SDS011;57136;51.986;4.468;2022-08-01T11:25:22;4.40;;;1.92;;
69527;SDS011;57136;51.986;4.468;2022-08-01T11:27:48;5.32;;;1.80;;
69527;SDS011;57136;51.986;4.468;2022-08-01T11:32:52;6.60;;;2.33;;
69527;SDS011;57136;51.986;4.468;2022-08-01T11:35:19;7.60;;;2.33;;
69527;SDS011;57136;51.986;4.468;2022-08-01T11:37:54;14.82;;;8.05;;
69527;SDS011;57136;51.986;4.468;2022-08-01T11:40:22;6.78;;;4.20;;
69527;SDS011;57136;51.986;4.468;2022-08-01T11:42:49;4.90;;;2.17;;
69527;SDS011;57136;51.986;4.468;2022-08-01T11:45:51;3.78;;;1.67;;
69527;SDS011;57136;51.986;4.468;2022-08-01T11:48:20;3.65;;;1.90;;
69527;SDS011;57136;51.986;4.468;2022-08-01T11:50:49;4.68;;;2.13;;
69527;SDS011;57136;51.986;4.468;2022-08-01T11:53:16;5.18;;;1.95;;
69527;SDS011;57136;51.986;4.468;2022-08-01T11:55:48;4.63;;;2.30;;
69527;SDS011;57136;51.986;4.468;2022-08-01T11:58:21;4.97;;;2.00;;
69527;SDS011;57136;51.986;4.468;2022-08-01T12:00:51;7.65;;;2.63;;
69527;SDS011;57136;51.986;4.468;2022-08-01T12:03:22;4.13;;;1.98;;
69527;SDS011;57136;51.986;4.468;2022-08-01T12:05:49;2.50;;;1.75;;
69527;SDS011;57136;51.986;4.468;2022-08-01T12:08:14;5.15;;;1.75;;
69527;SDS011;57136;51.986;4.468;2022-08-01T12:10:52;6.82;;;1.75;;
69527;SDS011;57136;51.986;4.468;2022-08-01T12:13:18;5.63;;;1.52;;
69527;SDS011;57136;51.986;4.468;2022-08-01T12:15:45;4.53;;;1.30;;
69527;SDS011;57136;51.986;4.468;2022-08-01T12:18:10;4.88;;;2.05;;
69527;SDS011;57136;51.986;4.468;2022-08-01T12:20:37;5.13;;;1.70;;
69527;SDS011;57136;51.986;4.468;2022-08-01T12:23:04;5.28;;;1.40;;
69527;SDS011;57136;51.986;4.468;2022-08-01T12:25:34;2.95;;;1.50;;
69527;SDS011;57136;51.986;4.468;2022-08-01T12:28:02;4.18;;;1.60;;
69527;SDS011;57136;51.986;4.468;2022-08-01T12:30:34;5.63;;;1.98;;
69527;SDS011;57136;51.986;4.468;2022-08-01T12:33:05;4.57;;;2.25;;
69527;SDS011;57136;51.986;4.468;2022-08-01T12:35:32;5.28;;;1.75;;
69527;SDS011;57136;51.986;4.468;2022-08-01T12:38:06;4.50;;;1.70;;
69527;SDS011;57136;51.986;4.468;2022-08-01T12:40:40;5.05;;;1.77;;
69527;SDS011;57136;51.986;4.468;2022-08-01T12:43:07;4.90;;;1.90;;
69527;SDS011;57136;51.986;4.468;2022-08-01T12:45:37;2.50;;;1.63;;
69527;SDS011;57136;51.986;4.468;2022-08-01T12:48:08;6.93;;;1.90;;
69527;SDS011;57136;51.986;4.468;2022-08-01T12:53:05;5.47;;;1.77;;
69527;SDS011;57136;51.986;4.468;2022-08-01T12:55:34;3.65;;;1.77;;
69527;SDS011;57136;51.986;4.468;2022-08-01T12:58:10;4.88;;;1.63;;
69527;SDS011;57136;51.986;4.468;2022-08-01T13:00:38;5.15;;;1.70;;
69527;SDS011;57136;51.986;4.468;2022-08-01T13:03:12;2.63;;;1.40;;
69527;SDS011;57136;51.986;4.468;2022-08-01T13:08:15;6.78;;;2.10;;
69527;SDS011;57136;51.986;4.468;2022-08-01T13:10:42;7.78;;;1.83;;
69527;SDS011;57136;51.986;4.468;2022-08-01T13:13:09;4.35;;;1.80;;
69527;SDS011;57136;51.986;4.468;2022-08-01T13:15:37;3.22;;;1.50;;
69527;SDS011;57136;51.986;4.468;2022-08-01T13:18:24;5.80;;;3.55;;
69527;SDS011;57136;51.986;4.468;2022-08-01T13:21:06;7.55;;;3.88;;
69527;SDS011;57136;51.986;4.468;2022-08-01T13:23:59;4.82;;;2.38;;
69527;SDS011;57136;51.986;4.468;2022-08-01T13:26:45;4.75;;;2.00;;
69527;SDS011;57136;51.986;4.468;2022-08-01T13:29:13;4.22;;;2.13;;
69527;SDS011;57136;51.986;4.468;2022-08-01T13:31:40;6.63;;;2.10;;
69527;SDS011;57136;51.986;4.468;2022-08-01T13:34:07;5.82;;;2.53;;
69527;SDS011;57136;51.986;4.468;2022-08-01T13:36:33;5.20;;;1.85;;
69527;SDS011;57136;51.986;4.468;2022-08-01T13:38:59;5.80;;;2.33;;
69527;SDS011;57136;51.986;4.468;2022-08-01T13:41:44;3.97;;;1.70;;
69527;SDS011;57136;51.986;4.468;2022-08-01T13:44:10;3.45;;;1.90;;
69527;SDS011;57136;51.986;4.468;2022-08-01T13:46:36;5.10;;;1.80;;
69527;SDS011;57136;51.986;4.468;2022-08-01T13:49:03;5.07;;;1.98;;
69527;SDS011;57136;51.986;4.468;2022-08-01T13:51:30;4.78;;;2.20;;
69527;SDS011;57136;51.986;4.468;2022-08-01T13:53:56;6.88;;;2.03;;
69527;SDS011;57136;51.986;4.468;2022-08-01T13:56:21;6.30;;;2.10;;
69527;SDS011;57136;51.986;4.468;2022-08-01T13:58:47;4.18;;;2.00;;
69527;SDS011;57136;51.986;4.468;2022-08-01T14:01:13;5.70;;;1.90;;
69527;SDS011;57136;51.986;4.468;2022-08-01T14:03:38;6.63;;;1.80;;
69527;SDS011;57136;51.986;4.468;2022-08-01T14:06:03;7.80;;;2.13;;
69527;SDS011;57136;51.986;4.468;2022-08-01T14:08:29;8.10;;;2.30;;
69527;SDS011;57136;51.986;4.468;2022-08-01T14:10:54;4.35;;;2.00;;
69527;SDS011;57136;51.986;4.468;2022-08-01T14:13:22;3.92;;;1.70;;
69527;SDS011;57136;51.986;4.468;2022-08-01T14:15:48;6.18;;;2.22;;
69527;SDS011;57136;51.986;4.468;2022-08-01T14:18:14;5.28;;;1.75;;
69527;SDS011;57136;51.986;4.468;2022-08-01T14:20:40;4.38;;;2.00;;
69527;SDS011;57136;51.986;4.468;2022-08-01T14:23:06;7.55;;;2.38;;
69527;SDS011;57136;51.986;4.468;2022-08-01T14:25:31;4.55;;;2.67;;
69527;SDS011;57136;51.986;4.468;2022-08-01T14:27:58;4.25;;;1.83;;
69527;SDS011;57136;51.986;4.468;2022-08-01T14:30:23;5.47;;;2.03;;
69527;SDS011;57136;51.986;4.468;2022-08-01T14:32:49;5.35;;;2.25;;
69527;SDS011;57136;51.986;4.468;2022-08-01T14:35:14;10.10;;;6.65;;
69527;SDS011;57136;51.986;4.468;2022-08-01T14:37:39;12.73;;;8.85;;
69527;SDS011;57136;51.986;4.468;2022-08-01T14:40:05;4.95;;;2.03;;
69527;SDS011;57136;51.986;4.468;2022-08-01T14:42:34;6.78;;;2.00;;
69527;SDS011;57136;51.986;4.468;2022-08-01T14:44:59;9.07;;;2.17;;
69527;SDS011;57136;51.986;4.468;2022-08-01T14:47:25;4.93;;;2.03;;
69527;SDS011;57136;51.986;4.468;2022-08-01T14:49:50;6.28;;;1.90;;
69527;SDS011;57136;51.986;4.468;2022-08-01T14:52:16;4.88;;;2.00;;
69527;SDS011;57136;51.986;4.468;2022-08-01T14:54:41;6.30;;;2.08;;
69527;SDS011;57136;51.986;4.468;2022-08-01T14:57:07;6.10;;;2.33;;
69527;SDS011;57136;51.986;4.468;2022-08-01T14:59:33;4.88;;;1.92;;
69527;SDS011;57136;51.986;4.468;2022-08-01T15:01:58;3.47;;;1.85;;
69527;SDS011;57136;51.986;4.468;2022-08-01T15:04:24;4.22;;;1.75;;
69527;SDS011;57136;51.986;4.468;2022-08-01T15:06:49;5.35;;;2.13;;
69527;SDS011;57136;51.986;4.468;2022-08-01T15:09:15;3.95;;;1.63;;
69527;SDS011;57136;51.986;4.468;2022-08-01T15:11:40;4.47;;;1.77;;
69527;SDS011;57136;51.986;4.468;2022-08-01T15:14:06;3.95;;;2.10;;
69527;SDS011;57136;51.986;4.468;2022-08-01T15:16:50;4.78;;;2.13;;
69527;SDS011;57136;51.986;4.468;2022-08-01T15:19:18;3.70;;;1.83;;
69527;SDS011;57136;51.986;4.468;2022-08-01T15:21:43;7.97;;;2.65;;
69527;SDS011;57136;51.986;4.468;2022-08-01T15:24:09;5.95;;;2.10;;
69527;SDS011;57136;51.986;4.468;2022-08-01T15:26:34;7.55;;;4.25;;
69527;SDS011;57136;51.986;4.468;2022-08-01T15:29:00;6.20;;;4.03;;
69527;SDS011;57136;51.986;4.468;2022-08-01T15:31:25;9.68;;;2.33;;